Time;durP1;ratioP1;P1;durP2;ratioP2;P2;SDS_P1;SDS_P2;PMS_P1;PMS_P2;Temp;Humidity;BMP_temperature;BMP_pressure;BME280_temperature;BME280_humidity;BME280_pressure;Samples;Min_cycle;Max_cycle;Signal;HPM_P1;HPM_P2
2022/09/17 00:01:53;;;;;;;7.40;4.97;;;11.10;99.90;;;;;;5035039;28;20196;-64
2022/09/17 00:04:18;;;;;;;12.20;5.87;;;11.10;99.90;;;;;;5020938;28;20211;-64
2022/09/17 00:06:44;;;;;;;12.47;5.70;;;11.10;99.90;;;;;;5031654;28;20207;-63
2022/09/17 00:09:10;;;;;;;6.13;4.97;;;11.20;99.90;;;;;;5024516;28;20208;-63
2022/09/17 00:11:39;;;;;;;8.50;4.67;;;11.20;99.90;;;;;;5024841;28;20686;-64
2022/09/17 00:14:08;;;;;;;14.60;5.97;;;11.20;99.90;;;;;;5030707;28;20208;-64
2022/09/17 00:16:37;;;;;;;13.87;6.07;;;11.20;99.90;;;;;;5038135;28;20490;-63
2022/09/17 00:19:05;;;;;;;14.07;5.83;;;11.20;99.90;;;;;;5027795;28;20290;-63
2022/09/17 00:21:31;;;;;;;10.37;5.70;;;11.30;99.90;;;;;;5034391;28;20200;-62
2022/09/17 00:24:00;;;;;;;7.57;4.73;;;11.20;99.90;;;;;;5028942;28;20251;-63
2022/09/17 00:26:26;;;;;;;6.57;4.27;;;11.30;99.90;;;;;;5026279;28;20786;-62
2022/09/17 00:28:53;;;;;;;9.63;5.27;;;11.30;99.90;;;;;;5025070;28;20390;-63
2022/09/17 00:31:19;;;;;;;14.77;5.03;;;11.30;99.90;;;;;;5026048;28;20723;-63
2022/09/17 00:33:44;;;;;;;12.20;5.50;;;11.30;99.90;;;;;;5034543;28;20666;-63
2022/09/17 00:36:10;;;;;;;7.03;4.83;;;11.30;99.90;;;;;;5025393;28;20180;-64
2022/09/17 00:38:36;;;;;;;13.60;5.30;;;11.40;99.90;;;;;;5036633;28;20636;-63
2022/09/17 00:41:02;;;;;;;12.70;4.00;;;11.40;99.90;;;;;;5010907;28;20243;-63
2022/09/17 00:43:47;;;;;;;8.90;4.17;;;11.40;99.90;;;;;;5023587;28;20204;-63
2022/09/17 00:46:24;;;;;;;8.40;3.60;;;11.40;99.90;;;;;;5015228;28;20190;-62
2022/09/17 00:48:53;;;;;;;12.20;3.97;;;11.40;99.90;;;;;;5015688;28;20207;-63
2022/09/17 00:51:26;;;;;;;11.33;4.03;;;11.40;99.90;;;;;;5031281;28;20302;-63
2022/09/17 00:53:51;;;;;;;6.33;4.20;;;11.40;99.90;;;;;;5022019;28;20213;-62
2022/09/17 00:56:26;;;;;;;9.27;3.47;;;11.50;99.90;;;;;;5028486;28;20276;-63
2022/09/17 00:58:53;;;;;;;4.63;3.23;;;11.50;99.90;;;;;;5038620;28;20254;-63
2022/09/17 01:01:19;;;;;;;5.80;3.90;;;11.50;99.90;;;;;;5047784;28;20189;-63
2022/09/17 01:03:44;;;;;;;5.13;2.73;;;11.50;99.90;;;;;;5027276;28;20219;-64
2022/09/17 01:06:18;;;;;;;5.57;2.90;;;11.50;99.90;;;;;;5017071;28;20281;-63
2022/09/17 01:09:12;;;;;;;7.60;2.33;;;11.50;99.90;;;;;;5021365;28;20566;-63
2022/09/17 01:11:57;;;;;;;5.63;2.70;;;11.50;99.90;;;;;;5044252;28;20214;-63
2022/09/17 01:14:54;;;;;;;7.40;2.67;;;11.50;99.90;;;;;;5016955;28;20204;-63
2022/09/17 01:17:31;;;;;;;4.63;2.67;;;11.50;99.90;;;;;;5033901;28;20194;-63
2022/09/17 01:20:27;;;;;;;8.60;2.90;;;11.50;99.90;;;;;;5023286;28;20203;-63
2022/09/17 01:23:20;;;;;;;6.87;2.97;;;11.50;99.90;;;;;;5021727;28;20968;-63
2022/09/17 01:26:06;;;;;;;4.30;2.30;;;11.50;99.90;;;;;;5032074;28;20197;-64
2022/09/17 01:28:48;;;;;;;7.47;2.87;;;11.50;99.90;;;;;;5024874;28;20802;-63
2022/09/17 01:31:53;;;;;;;12.83;3.40;;;11.50;99.90;;;;;;5016184;28;20187;-63
2022/09/17 01:34:30;;;;;;;6.07;2.40;;;11.50;99.90;;;;;;5019476;28;20213;-63
2022/09/17 01:37:02;;;;;;;4.00;2.60;;;11.50;99.90;;;;;;5026033;28;20513;-63
2022/09/17 01:39:35;;;;;;;7.13;3.00;;;11.50;99.90;;;;;;5032868;28;20559;-64
2022/09/17 01:42:17;;;;;;;8.90;2.50;;;11.50;99.90;;;;;;5014208;28;20212;-63
2022/09/17 01:44:59;;;;;;;4.10;2.17;;;11.50;99.90;;;;;;5015979;28;20212;-62
2022/09/17 01:47:38;;;;;;;3.60;2.90;;;11.50;99.90;;;;;;5013166;28;20803;-63
2022/09/17 01:50:10;;;;;;;7.47;3.03;;;11.40;99.90;;;;;;5032669;28;20233;-62
2022/09/17 01:52:38;;;;;;;10.17;3.30;;;11.40;99.90;;;;;;5027612;28;20213;-62
2022/09/17 01:55:10;;;;;;;4.07;2.53;;;11.40;99.90;;;;;;5023951;28;20212;-62
2022/09/17 01:57:41;;;;;;;8.03;2.80;;;11.40;99.90;;;;;;5035459;28;20306;-62
2022/09/17 02:00:16;;;;;;;6.97;3.30;;;11.40;99.90;;;;;;5015257;28;20196;-62
2022/09/17 02:02:51;;;;;;;4.90;3.00;;;11.40;99.90;;;;;;5029225;28;20198;-63
2022/09/17 02:05:53;;;;;;;7.17;2.63;;;11.40;99.90;;;;;;5023229;28;20252;-62
2022/09/17 02:08:40;;;;;;;13.10;2.40;;;11.40;99.90;;;;;;5022407;28;20626;-63
2022/09/17 02:11:12;;;;;;;8.30;3.10;;;11.40;99.90;;;;;;5027220;28;20205;-62
2022/09/17 02:13:49;;;;;;;4.77;2.87;;;11.40;99.90;;;;;;5029445;28;20247;-62
2022/09/17 02:16:22;;;;;;;7.53;3.30;;;11.40;99.90;;;;;;5011378;28;20194;-63
2022/09/17 02:19:11;;;;;;;5.90;2.97;;;11.40;99.90;;;;;;5010539;28;20229;-63
2022/09/17 02:22:07;;;;;;;5.50;2.77;;;11.50;99.90;;;;;;5046333;28;20227;-62
2022/09/17 02:24:47;;;;;;;10.10;3.80;;;11.50;99.90;;;;;;5017039;28;20304;-63
2022/09/17 02:27:23;;;;;;;7.33;3.20;;;11.50;99.90;;;;;;5027622;28;20175;-63
2022/09/17 02:29:49;;;;;;;9.23;3.20;;;11.50;99.90;;;;;;5013595;28;20552;-63
2022/09/17 02:32:14;;;;;;;14.70;3.27;;;11.50;99.90;;;;;;5045375;28;20681;-63
2022/09/17 02:34:40;;;;;;;3.67;2.57;;;11.60;99.90;;;;;;5032440;28;20221;-63
2022/09/17 02:37:06;;;;;;;8.27;2.87;;;11.60;99.90;;;;;;5043132;28;20679;-63
2022/09/17 02:39:32;;;;;;;5.37;2.80;;;11.60;99.90;;;;;;5032576;28;20208;-63
2022/09/17 02:42:19;;;;;;;4.80;2.50;;;11.60;99.90;;;;;;5032169;28;20196;-63
2022/09/17 02:45:06;;;;;;;5.63;2.50;;;11.60;99.90;;;;;;5016010;28;20530;-62
2022/09/17 02:47:49;;;;;;;8.17;3.07;;;11.60;99.90;;;;;;5017436;28;20900;-62
2022/09/17 02:50:42;;;;;;;9.87;3.30;;;11.60;99.90;;;;;;5023491;28;20225;-62
2022/09/17 02:53:30;;;;;;;6.40;3.20;;;11.60;99.90;;;;;;5018375;28;20231;-62
2022/09/17 02:56:19;;;;;;;9.43;3.20;;;11.60;99.90;;;;;;5015349;28;20193;-64
2022/09/17 02:59:10;;;;;;;12.70;3.50;;;11.60;99.90;;;;;;5024747;28;20208;-67
2022/09/17 03:01:45;;;;;;;11.17;3.37;;;11.60;99.90;;;;;;5025774;28;20254;-62
2022/09/17 03:04:14;;;;;;;7.13;2.73;;;11.70;99.90;;;;;;5011440;28;20219;-61
2022/09/17 03:06:41;;;;;;;10.73;3.17;;;11.60;99.90;;;;;;5010471;28;20234;-63
2022/09/17 03:09:08;;;;;;;9.57;3.07;;;11.70;99.90;;;;;;5035038;28;20222;-63
2022/09/17 03:11:33;;;;;;;7.73;3.27;;;11.60;99.90;;;;;;5026201;28;20189;-63
2022/09/17 03:13:59;;;;;;;6.43;2.90;;;11.70;99.90;;;;;;5029111;28;20235;-62
2022/09/17 03:16:24;;;;;;;10.43;2.93;;;11.70;99.90;;;;;;5019462;28;20189;-63
2022/09/17 03:18:50;;;;;;;9.93;3.50;;;11.70;99.90;;;;;;5025469;28;20200;-63
2022/09/17 03:21:15;;;;;;;6.90;2.80;;;11.70;99.90;;;;;;5014669;28;20641;-62
2022/09/17 03:23:41;;;;;;;10.23;3.60;;;11.70;99.90;;;;;;5041734;28;20292;-62
2022/09/17 03:26:06;;;;;;;9.97;2.67;;;11.70;99.90;;;;;;5012474;28;20189;-63
2022/09/17 03:28:32;;;;;;;9.50;3.60;;;11.70;99.90;;;;;;5023455;28;20569;-63
2022/09/17 03:30:57;;;;;;;7.63;2.30;;;11.80;99.90;;;;;;5026275;28;20294;-62
2022/09/17 03:33:23;;;;;;;9.37;3.03;;;11.80;99.90;;;;;;5035445;28;20678;-63
2022/09/17 03:35:48;;;;;;;6.47;2.47;;;11.80;99.90;;;;;;5015040;28;20202;-63
2022/09/17 03:38:14;;;;;;;7.43;2.50;;;11.80;99.90;;;;;;5031998;28;20216;-63
2022/09/17 03:40:40;;;;;;;10.17;2.93;;;11.80;99.90;;;;;;5025258;28;20244;-63
2022/09/17 03:43:06;;;;;;;6.40;2.87;;;11.80;99.90;;;;;;5029654;28;20664;-63
2022/09/17 03:45:31;;;;;;;8.43;2.50;;;11.80;99.90;;;;;;5021894;28;20917;-63
2022/09/17 03:47:57;;;;;;;6.13;2.43;;;11.80;99.90;;;;;;5034290;28;20250;-62
2022/09/17 03:50:22;;;;;;;8.33;2.47;;;11.80;99.90;;;;;;5035676;28;20712;-63
2022/09/17 03:52:48;;;;;;;8.80;3.00;;;11.80;99.90;;;;;;5025724;28;20216;-63
2022/09/17 03:55:14;;;;;;;4.73;2.70;;;11.80;99.90;;;;;;5029583;28;20662;-63
2022/09/17 03:57:40;;;;;;;15.77;4.70;;;11.90;99.90;;;;;;5028700;28;20407;-63
2022/09/17 04:00:06;;;;;;;8.77;4.23;;;11.90;99.90;;;;;;5030519;28;20206;-62
2022/09/17 04:02:32;;;;;;;11.73;4.60;;;11.90;99.90;;;;;;5025384;28;20740;-62
2022/09/17 04:04:57;;;;;;;10.93;4.17;;;11.90;99.90;;;;;;5030001;28;20215;-63
2022/09/17 04:07:22;;;;;;;9.97;3.80;;;11.90;99.90;;;;;;5038671;28;20738;-63
2022/09/17 04:09:48;;;;;;;6.23;3.27;;;11.90;99.90;;;;;;5028244;28;20207;-63
2022/09/17 04:12:13;;;;;;;7.00;3.20;;;12.00;99.90;;;;;;5027990;28;20202;-63
2022/09/17 04:14:39;;;;;;;8.57;2.70;;;11.90;99.90;;;;;;5028193;28;20560;-63
2022/09/17 04:17:04;;;;;;;7.87;3.03;;;12.00;99.90;;;;;;5037707;28;20190;-63
2022/09/17 04:19:30;;;;;;;11.40;3.10;;;12.00;99.90;;;;;;5028783;28;20199;-63
2022/09/17 04:21:55;;;;;;;4.80;2.27;;;12.00;99.90;;;;;;5027953;28;20284;-63
2022/09/17 04:24:21;;;;;;;9.00;3.00;;;12.00;99.90;;;;;;5036721;28;20212;-62
2022/09/17 04:26:46;;;;;;;7.53;2.33;;;12.00;99.90;;;;;;5024702;28;20196;-63
2022/09/17 04:29:12;;;;;;;8.00;3.17;;;12.00;99.90;;;;;;5038433;28;20200;-63
2022/09/17 04:31:37;;;;;;;11.40;2.87;;;12.00;99.90;;;;;;5029202;28;20186;-63
2022/09/17 04:34:03;;;;;;;7.83;3.10;;;12.00;99.90;;;;;;5027373;28;20258;-62
2022/09/17 04:36:28;;;;;;;8.83;2.73;;;12.00;99.90;;;;;;5027048;28;20283;-63
2022/09/17 04:38:53;;;;;;;4.13;2.20;;;12.00;99.90;;;;;;5044015;28;20273;-63
2022/09/17 04:41:19;;;;;;;7.30;2.43;;;12.00;99.90;;;;;;5023971;28;20216;-63
2022/09/17 04:43:45;;;;;;;11.00;2.60;;;12.00;99.90;;;;;;5029540;28;20295;-63
2022/09/17 04:46:10;;;;;;;7.47;2.67;;;12.00;99.90;;;;;;5021121;28;20225;-63
2022/09/17 04:48:36;;;;;;;6.80;2.13;;;12.00;99.90;;;;;;5032666;28;20292;-63
2022/09/17 04:51:02;;;;;;;6.50;2.10;;;12.00;99.90;;;;;;5027388;28;20776;-63
2022/09/17 04:53:27;;;;;;;5.40;1.90;;;12.00;99.90;;;;;;5029350;28;20307;-63
2022/09/17 04:55:53;;;;;;;3.80;2.10;;;12.00;99.90;;;;;;5028782;28;20211;-63
2022/09/17 04:58:18;;;;;;;7.07;2.53;;;12.00;99.90;;;;;;5030809;28;20569;-63
2022/09/17 05:00:44;;;;;;;6.00;2.60;;;12.00;99.90;;;;;;5030119;28;20203;-63
2022/09/17 05:03:09;;;;;;;8.27;2.67;;;12.00;99.90;;;;;;5043753;28;20316;-63
2022/09/17 05:05:35;;;;;;;6.33;2.90;;;12.00;99.90;;;;;;5027092;28;20219;-63
2022/09/17 05:08:00;;;;;;;8.40;2.37;;;12.00;99.90;;;;;;5040626;28;20292;-63
2022/09/17 05:10:26;;;;;;;9.20;3.23;;;12.00;99.90;;;;;;5031030;28;20624;-63
2022/09/17 05:12:54;;;;;;;2.73;1.93;;;12.00;99.90;;;;;;5041499;28;20696;-63
2022/09/17 05:15:20;;;;;;;7.20;3.33;;;12.00;99.90;;;;;;5024744;28;20260;-62
2022/09/17 05:17:46;;;;;;;4.10;2.00;;;12.00;99.90;;;;;;5038560;28;20209;-63
2022/09/17 05:20:12;;;;;;;8.50;3.50;;;12.00;99.90;;;;;;5033966;28;20198;-63
2022/09/17 05:22:50;;;;;;;5.20;2.63;;;12.10;99.90;;;;;;5031976;28;20275;-64
2022/09/17 05:25:18;;;;;;;6.03;2.73;;;12.10;99.90;;;;;;5017787;28;20768;-64
2022/09/17 05:27:44;;;;;;;3.73;2.03;;;12.10;99.90;;;;;;5043564;28;20209;-63
2022/09/17 05:30:11;;;;;;;8.27;2.80;;;12.10;99.90;;;;;;5035032;28;20217;-63
2022/09/17 05:32:36;;;;;;;6.30;2.73;;;12.20;99.90;;;;;;5042847;28;20221;-63
2022/09/17 05:35:03;;;;;;;7.00;2.20;;;12.20;99.90;;;;;;5035968;28;20219;-63
2022/09/17 05:37:29;;;;;;;13.17;3.03;;;12.20;99.90;;;;;;5028411;28;20197;-63
2022/09/17 05:39:54;;;;;;;8.23;2.80;;;12.20;99.90;;;;;;5035240;28;20206;-63
2022/09/17 05:42:20;;;;;;;8.03;2.77;;;12.20;99.90;;;;;;5027059;28;20263;-65
2022/09/17 05:44:45;;;;;;;6.67;2.33;;;12.20;99.90;;;;;;5035808;28;20296;-64
2022/09/17 05:47:11;;;;;;;8.27;3.23;;;12.30;99.90;;;;;;5028019;28;20195;-63
2022/09/17 05:49:36;;;;;;;2.97;2.73;;;12.30;99.90;;;;;;5038491;28;20223;-63
2022/09/17 05:52:02;;;;;;;5.97;2.90;;;12.30;99.90;;;;;;5025565;28;20260;-63
2022/09/17 05:54:28;;;;;;;9.43;4.30;;;12.40;99.90;;;;;;5038331;28;20615;-63
2022/09/17 05:56:54;;;;;;;9.73;4.70;;;12.40;99.90;;;;;;5026255;28;20211;-63
2022/09/17 05:59:20;;;;;;;9.57;5.90;;;12.40;99.90;;;;;;5035706;28;20244;-64
2022/09/17 06:01:46;;;;;;;15.13;5.20;;;12.40;99.90;;;;;;5024405;28;20220;-63
2022/09/17 06:04:12;;;;;;;11.23;6.90;;;12.30;99.90;;;;;;5027225;28;20654;-66
2022/09/17 06:06:38;;;;;;;12.17;6.40;;;12.40;99.90;;;;;;5023959;28;20182;-66
2022/09/17 06:09:07;;;;;;;9.33;5.23;;;12.40;99.90;;;;;;5025539;28;20208;-66
2022/09/17 06:11:33;;;;;;;12.67;5.10;;;12.40;99.90;;;;;;5023683;28;20616;-66
2022/09/17 06:13:59;;;;;;;12.50;5.57;;;12.50;99.90;;;;;;5035196;28;20284;-68
2022/09/17 06:16:24;;;;;;;14.30;5.40;;;12.50;99.90;;;;;;5015657;28;20250;-69
2022/09/17 06:18:51;;;;;;;18.23;6.30;;;12.50;99.90;;;;;;5032268;28;20200;-57
2022/09/17 06:21:18;;;;;;;12.53;4.90;;;12.60;99.90;;;;;;5021678;28;20210;-57
2022/09/17 06:23:44;;;;;;;16.67;7.73;;;12.70;99.90;;;;;;5037893;28;20679;-57
2022/09/17 06:26:09;;;;;;;12.87;6.87;;;12.70;99.90;;;;;;5026936;28;20241;-58
2022/09/17 06:28:35;;;;;;;15.97;6.33;;;12.80;99.90;;;;;;5034824;28;20650;-57
2022/09/17 06:31:03;;;;;;;19.40;6.47;;;12.90;99.90;;;;;;5021706;28;20312;-56
2022/09/17 06:33:29;;;;;;;16.00;6.03;;;13.00;99.90;;;;;;5035169;28;20218;-56
2022/09/17 06:35:58;;;;;;;10.23;5.87;;;13.10;99.90;;;;;;5026263;28;20202;-56
2022/09/17 06:38:24;;;;;;;10.57;5.43;;;13.10;99.90;;;;;;5027830;28;20330;-56
2022/09/17 06:40:51;;;;;;;14.77;5.40;;;13.00;99.90;;;;;;5025002;28;20782;-57
2022/09/17 06:43:16;;;;;;;14.80;4.80;;;13.00;99.90;;;;;;5036850;28;20205;-69
2022/09/17 06:45:42;;;;;;;14.97;5.00;;;12.90;99.90;;;;;;5031256;28;20261;-58
2022/09/17 06:48:08;;;;;;;17.10;5.50;;;12.90;99.90;;;;;;5033704;28;20204;-58
2022/09/17 06:50:33;;;;;;;18.33;5.37;;;12.90;99.90;;;;;;5028398;28;20234;-56
2022/09/17 06:52:59;;;;;;;12.93;5.23;;;12.80;99.90;;;;;;5030367;28;20309;-56
2022/09/17 06:55:24;;;;;;;15.90;4.43;;;12.80;99.90;;;;;;5032311;28;20201;-56
2022/09/17 06:57:50;;;;;;;13.87;5.10;;;12.80;99.90;;;;;;5040164;28;20192;-57
2022/09/17 07:00:15;;;;;;;10.60;4.03;;;12.90;99.90;;;;;;5027595;28;20239;-69
2022/09/17 07:02:41;;;;;;;11.47;4.43;;;12.90;99.90;;;;;;5028028;28;20263;-68
2022/09/17 07:05:06;;;;;;;9.53;3.87;;;12.90;99.90;;;;;;5032174;28;20200;-73
2022/09/17 07:07:34;;;;;;;8.00;4.00;;;12.90;99.90;;;;;;5023977;28;20189;-63
2022/09/17 07:10:00;;;;;;;13.90;4.00;;;13.00;99.90;;;;;;5037280;28;20702;-62
2022/09/17 07:12:26;;;;;;;9.43;4.00;;;13.00;99.90;;;;;;5016227;28;20285;-63
2022/09/17 07:14:51;;;;;;;12.30;3.77;;;13.10;99.90;;;;;;5029447;28;20204;-63
2022/09/17 07:17:17;;;;;;;11.53;3.90;;;13.20;99.90;;;;;;5016596;28;20635;-64
2022/09/17 07:19:42;;;;;;;6.27;3.20;;;13.20;99.90;;;;;;5038796;28;20559;-63
2022/09/17 07:22:08;;;;;;;9.13;3.53;;;13.30;99.90;;;;;;5045841;28;20181;-63
2022/09/17 07:24:33;;;;;;;13.60;3.80;;;13.20;99.90;;;;;;5024197;28;20190;-62
2022/09/17 07:27:00;;;;;;;10.33;3.03;;;13.20;99.90;;;;;;5026433;28;20664;-62
2022/09/17 07:29:26;;;;;;;10.73;4.07;;;13.20;99.90;;;;;;5033180;28;20246;-62
2022/09/17 07:31:52;;;;;;;12.03;3.90;;;13.20;99.90;;;;;;5012740;28;20273;-67
2022/09/17 07:34:17;;;;;;;6.40;4.00;;;13.30;99.90;;;;;;5040273;28;20192;-66
2022/09/17 07:36:43;;;;;;;8.60;3.10;;;13.30;99.90;;;;;;5024001;28;20205;-67
2022/09/17 07:39:10;;;;;;;10.77;2.83;;;13.30;99.90;;;;;;5036237;28;20192;-66
2022/09/17 07:41:36;;;;;;;12.27;3.00;;;13.30;99.90;;;;;;5024034;28;20209;-67
2022/09/17 07:44:01;;;;;;;9.40;2.63;;;13.40;99.90;;;;;;5027342;28;20334;-66
2022/09/17 07:46:28;;;;;;;12.73;3.57;;;13.40;99.90;;;;;;5009473;28;20221;-66
2022/09/17 07:48:53;;;;;;;10.50;2.80;;;13.40;99.90;;;;;;5038616;28;20600;-65
2022/09/17 07:51:21;;;;;;;13.53;3.20;;;13.40;99.90;;;;;;5020257;28;20323;-65
2022/09/17 07:53:49;;;;;;;10.90;2.77;;;13.50;99.90;;;;;;5016930;28;20731;-65
2022/09/17 07:56:15;;;;;;;12.40;2.73;;;13.50;99.90;;;;;;5016812;28;20233;-65
2022/09/17 07:58:41;;;;;;;14.17;3.50;;;13.50;99.90;;;;;;5016455;28;20689;-65
2022/09/17 08:01:08;;;;;;;7.27;2.93;;;13.50;99.90;;;;;;5018481;28;20200;-65
2022/09/17 08:03:34;;;;;;;10.87;2.00;;;13.50;99.90;;;;;;5032251;28;20206;-68
2022/09/17 08:06:08;;;;;;;13.47;2.50;;;13.50;99.90;;;;;;5014050;28;20199;-68
2022/09/17 08:08:34;;;;;;;10.67;2.73;;;13.50;99.90;;;;;;5020037;28;20219;-68
2022/09/17 08:11:04;;;;;;;9.77;2.57;;;13.50;99.90;;;;;;5015982;28;20392;-65
2022/09/17 08:13:30;;;;;;;11.03;2.63;;;13.60;99.90;;;;;;5014724;28;20204;-64
2022/09/17 08:16:04;;;;;;;9.13;2.60;;;13.60;99.90;;;;;;5017002;28;20562;-66
2022/09/17 08:18:30;;;;;;;8.60;2.70;;;13.70;99.90;;;;;;5014331;28;20301;-67
2022/09/17 08:20:57;;;;;;;11.23;2.93;;;13.90;99.90;;;;;;5013185;28;20744;-66
2022/09/17 08:23:23;;;;;;;9.53;2.60;;;14.00;99.90;;;;;;5017890;28;20193;-66
2022/09/17 08:25:53;;;;;;;9.47;2.50;;;14.10;99.90;;;;;;5016065;28;20203;-68
2022/09/17 08:28:18;;;;;;;5.17;2.43;;;14.30;99.90;;;;;;5016858;28;20242;-66
2022/09/17 08:30:45;;;;;;;5.97;2.27;;;14.30;99.90;;;;;;5012764;28;20200;-66
2022/09/17 08:33:10;;;;;;;7.10;1.97;;;14.30;99.90;;;;;;5015735;28;20690;-66
2022/09/17 08:35:36;;;;;;;7.33;2.23;;;14.30;99.90;;;;;;5015242;28;20204;-66
2022/09/17 08:38:01;;;;;;;14.20;3.27;;;14.20;99.90;;;;;;5015117;28;20694;-65
2022/09/17 08:40:27;;;;;;;12.53;2.47;;;14.20;99.90;;;;;;5013978;28;20199;-65
2022/09/17 08:42:59;;;;;;;9.37;2.23;;;14.30;99.90;;;;;;5018272;28;20194;-65
2022/09/17 08:45:25;;;;;;;10.87;3.00;;;14.30;99.90;;;;;;5010507;28;20210;-65
2022/09/17 08:47:58;;;;;;;5.30;2.00;;;14.30;99.90;;;;;;5013540;28;20191;-67
2022/09/17 08:50:31;;;;;;;7.83;2.03;;;14.30;99.90;;;;;;5014955;28;20274;-68
2022/09/17 08:53:22;;;;;;;4.57;2.17;;;14.50;99.90;;;;;;5025237;28;20214;-66
2022/09/17 08:56:05;;;;;;;5.33;1.93;;;14.50;99.90;;;;;;5015993;28;20273;-67
2022/09/17 08:58:43;;;;;;;7.37;2.50;;;14.40;99.90;;;;;;5016298;28;20724;-66
2022/09/17 09:01:22;;;;;;;7.27;2.50;;;14.20;99.90;;;;;;5013615;28;20231;-65
2022/09/17 09:04:18;;;;;;;7.50;2.37;;;14.00;99.90;;;;;;5016002;28;20186;-67
2022/09/17 09:06:57;;;;;;;12.20;3.17;;;13.80;99.90;;;;;;5015095;28;20205;-66
2022/09/17 09:09:27;;;;;;;6.33;1.87;;;13.80;99.90;;;;;;5018732;28;20515;-67
2022/09/17 09:12:04;;;;;;;8.80;2.63;;;13.90;99.90;;;;;;5020892;28;20221;-65
2022/09/17 09:14:39;;;;;;;7.13;2.20;;;14.20;99.90;;;;;;5008232;28;20190;-66
2022/09/17 09:17:08;;;;;;;3.30;1.80;;;14.60;99.90;;;;;;5014482;28;20764;-62
2022/09/17 09:19:42;;;;;;;5.07;2.37;;;14.80;99.90;;;;;;5020731;28;20323;-59
2022/09/17 09:22:27;;;;;;;6.70;1.87;;;14.80;99.90;;;;;;5019425;28;20681;-60
2022/09/17 09:25:17;;;;;;;10.00;2.33;;;14.90;99.90;;;;;;5019979;28;20202;-61
2022/09/17 09:27:55;;;;;;;9.67;2.67;;;15.00;99.90;;;;;;5021280;28;20322;-65
2022/09/17 09:30:23;;;;;;;6.17;1.77;;;15.10;99.90;;;;;;5019972;28;20297;-65
2022/09/17 09:33:06;;;;;;;5.73;2.70;;;15.10;99.90;;;;;;5016004;28;20216;-65
2022/09/17 09:35:35;;;;;;;7.47;1.83;;;15.00;99.90;;;;;;5014746;28;20214;-65
2022/09/17 09:38:29;;;;;;;8.03;2.43;;;14.80;99.90;;;;;;5012684;28;20623;-65
2022/09/17 09:41:20;;;;;;;5.87;1.93;;;14.50;99.90;;;;;;5018142;28;20274;-64
2022/09/17 09:43:50;;;;;;;6.23;2.17;;;14.20;99.90;;;;;;5015632;28;20192;-64
2022/09/17 09:46:39;;;;;;;6.77;2.23;;;13.90;99.90;;;;;;5021686;28;20195;-63
2022/09/17 09:49:28;;;;;;;13.53;2.77;;;13.60;99.90;;;;;;5021741;28;20194;-63
2022/09/17 09:52:20;;;;;;;8.50;2.43;;;13.60;99.90;;;;;;5014903;28;20260;-74
2022/09/17 09:55:28;;;;;;;7.60;2.10;;;13.80;99.90;;;;;;5028770;28;20194;-74
2022/09/17 09:58:31;;;;;;;6.43;2.57;;;14.10;99.90;;;;;;5017777;28;20187;-66
2022/09/17 10:00:57;;;;;;;4.50;1.90;;;14.40;99.90;;;;;;5024678;28;20203;-65
2022/09/17 10:03:27;;;;;;;8.20;2.23;;;14.70;99.90;;;;;;5032713;28;20191;-65
2022/09/17 10:05:54;;;;;;;7.90;2.23;;;15.00;99.90;;;;;;5026885;28;20206;-66
2022/09/17 10:08:20;;;;;;;10.97;1.93;;;15.10;99.90;;;;;;5023568;28;20198;-68
2022/09/17 10:10:53;;;;;;;5.97;2.00;;;15.10;99.90;;;;;;5026262;28;20215;-65
2022/09/17 10:13:19;;;;;;;6.57;1.77;;;15.00;99.90;;;;;;5024008;28;20302;-65
2022/09/17 10:15:44;;;;;;;7.83;2.53;;;15.00;99.90;;;;;;5028917;28;20206;-65
2022/09/17 10:18:17;;;;;;;8.70;1.90;;;15.00;99.90;;;;;;5014211;28;20254;-65
2022/09/17 10:20:59;;;;;;;9.37;2.13;;;15.20;99.90;;;;;;5026980;28;20199;-64
2022/09/17 10:23:28;;;;;;;3.77;1.37;;;15.30;99.90;;;;;;5026174;28;20200;-64
2022/09/17 10:25:54;;;;;;;10.40;1.83;;;15.20;99.90;;;;;;5032228;28;20214;-64
2022/09/17 10:28:44;;;;;;;7.60;2.27;;;15.20;99.90;;;;;;5027974;28;20206;-65
2022/09/17 10:31:10;;;;;;;3.97;2.07;;;14.90;99.90;;;;;;5016177;28;20196;-64
2022/09/17 10:33:51;;;;;;;4.80;2.17;;;14.80;99.90;;;;;;5041622;28;20521;-64
2022/09/17 10:36:41;;;;;;;8.80;1.80;;;14.70;99.90;;;;;;5015157;28;20517;-64
2022/09/17 10:39:23;;;;;;;7.47;2.23;;;15.00;99.90;;;;;;5009884;28;20545;-64
2022/09/17 10:41:57;;;;;;;8.90;2.27;;;15.10;99.90;;;;;;5019770;28;20286;-64
2022/09/17 10:44:28;;;;;;;7.53;2.50;;;15.20;99.90;;;;;;5031994;28;20223;-65
2022/09/17 10:47:00;;;;;;;10.70;3.17;;;15.40;99.90;;;;;;5020746;28;20201;-65
2022/09/17 10:49:45;;;;;;;11.07;3.17;;;15.60;99.90;;;;;;5006146;28;20180;-64
2022/09/17 10:52:36;;;;;;;9.20;2.50;;;15.60;99.90;;;;;;5018288;28;20273;-64
2022/09/17 10:55:22;;;;;;;7.17;2.10;;;15.30;99.90;;;;;;5018853;28;20192;-64
2022/09/17 10:58:03;;;;;;;2.73;1.60;;;15.20;99.90;;;;;;5025066;28;20218;-65
2022/09/17 11:00:40;;;;;;;7.70;2.57;;;15.10;99.90;;;;;;5017537;28;20202;-64
2022/09/17 11:03:13;;;;;;;5.53;2.03;;;15.30;99.90;;;;;;5025494;28;20176;-64
2022/09/17 11:05:56;;;;;;;7.47;2.13;;;15.70;99.90;;;;;;5020931;28;20225;-65
2022/09/17 11:08:22;;;;;;;5.90;2.37;;;15.90;99.90;;;;;;5026243;28;20231;-65
2022/09/17 11:11:06;;;;;;;5.13;2.13;;;15.80;99.90;;;;;;5036617;28;20227;-64
2022/09/17 11:13:54;;;;;;;5.33;1.73;;;15.70;99.90;;;;;;5009282;28;20208;-64
2022/09/17 11:16:46;;;;;;;6.57;2.33;;;15.70;99.90;;;;;;5016129;28;20936;-65
2022/09/17 11:19:48;;;;;;;9.67;1.53;;;15.90;99.90;;;;;;5018042;28;20254;-65
2022/09/17 11:22:45;;;;;;;4.37;1.57;;;15.90;99.90;;;;;;4999039;28;20225;-64
2022/09/17 11:25:52;;;;;;;7.30;1.93;;;16.20;99.90;;;;;;4994640;28;20227;-64
2022/09/17 11:28:40;;;;;;;4.90;1.60;;;16.40;99.90;;;;;;5024800;28;20214;-65
2022/09/17 11:31:29;;;;;;;4.50;2.07;;;16.20;99.90;;;;;;5021555;28;20290;-64
2022/09/17 11:34:23;;;;;;;5.93;1.90;;;15.80;99.90;;;;;;5019602;28;20223;-64
2022/09/17 11:37:08;;;;;;;6.23;1.77;;;15.70;99.90;;;;;;5023735;28;20245;-68
2022/09/17 11:39:50;;;;;;;5.97;1.60;;;15.70;99.90;;;;;;5016482;28;20282;-64
2022/09/17 11:42:36;;;;;;;9.27;1.90;;;16.00;99.90;;;;;;5016296;28;20231;-65
2022/09/17 11:45:23;;;;;;;6.17;1.87;;;16.20;99.90;;;;;;5019472;28;20658;-65
2022/09/17 11:47:57;;;;;;;5.27;1.80;;;16.30;99.90;;;;;;5015637;28;20286;-65
2022/09/17 11:50:31;;;;;;;4.00;1.37;;;16.30;99.90;;;;;;5017105;28;20287;-65
2022/09/17 11:53:06;;;;;;;2.93;1.63;;;16.30;99.90;;;;;;5018854;28;20220;-65
2022/09/17 11:55:50;;;;;;;5.07;1.60;;;16.40;99.90;;;;;;5020492;28;20202;-68
2022/09/17 11:58:46;;;;;;;4.03;1.73;;;16.30;99.90;;;;;;5017545;28;20183;-64
2022/09/17 12:01:37;;;;;;;3.53;1.30;;;16.30;99.90;;;;;;5009081;28;20211;-68
2022/09/17 12:04:40;;;;;;;2.90;1.13;;;16.40;99.90;;;;;;5011154;28;20542;-64
2022/09/17 12:07:21;;;;;;;4.97;1.50;;;16.30;99.90;;;;;;5014090;28;20195;-64
2022/09/17 12:09:55;;;;;;;5.93;1.53;;;16.20;99.90;;;;;;5015921;28;20192;-66
2022/09/17 12:12:23;;;;;;;3.47;1.23;;;16.10;99.90;;;;;;5012164;28;20791;-67
2022/09/17 12:15:13;;;;;;;3.77;1.17;;;15.80;99.90;;;;;;5016702;28;20231;-66
2022/09/17 12:17:46;;;;;;;7.17;1.10;;;15.50;99.40;;;;;;5013911;28;20204;-64
2022/09/17 12:20:36;;;;;;;4.67;3.83;;;15.50;99.60;;;;;;5016325;28;20192;-66
2022/09/17 12:23:09;;;;;;;4.10;1.77;;;15.90;99.30;;;;;;5013392;28;20199;-70
2022/09/17 12:25:55;;;;;;;4.43;1.97;;;16.30;99.20;;;;;;5016206;28;20231;-67
2022/09/17 12:28:30;;;;;;;5.07;1.60;;;16.80;99.90;;;;;;5018250;28;20679;-71
2022/09/17 12:31:15;;;;;;;4.20;1.13;;;16.90;99.90;;;;;;5012685;28;20315;-64
2022/09/17 12:33:47;;;;;;;2.13;1.50;;;16.70;99.80;;;;;;5019983;28;20218;-70
2022/09/17 12:36:47;;;;;;;2.73;1.10;;;17.10;99.90;;;;;;5017447;28;20200;-65
2022/09/17 12:39:52;;;;;;;4.07;1.50;;;17.50;99.00;;;;;;5015434;28;21023;-65
2022/09/17 12:42:53;;;;;;;5.07;1.60;;;17.90;99.10;;;;;;5015911;28;20282;-63
2022/09/17 12:45:45;;;;;;;5.20;1.67;;;18.40;98.20;;;;;;5018935;28;20668;-65
2022/09/17 12:48:24;;;;;;;5.60;1.57;;;17.80;98.30;;;;;;5019314;28;20184;-67
2022/09/17 12:51:23;;;;;;;4.87;1.37;;;17.10;99.30;;;;;;5020137;28;20231;-68
2022/09/17 12:54:07;;;;;;;6.37;2.73;;;16.80;99.90;;;;;;5021256;28;20227;-66
2022/09/17 12:57:06;;;;;;;6.10;2.27;;;16.60;99.70;;;;;;5020773;28;20196;-66
2022/09/17 12:59:39;;;;;;;2.97;1.53;;;16.70;98.60;;;;;;5019863;28;20189;-68
2022/09/17 13:02:37;;;;;;;1.43;0.80;;;17.10;95.30;;;;;;5019356;28;20204;-66
2022/09/17 13:05:35;;;;;;;2.83;1.13;;;17.60;93.30;;;;;;5017973;28;20303;-66
2022/09/17 13:08:13;;;;;;;4.33;1.37;;;18.10;91.80;;;;;;5018437;28;20255;-66
2022/09/17 13:10:58;;;;;;;1.40;0.93;;;18.20;89.90;;;;;;5019746;28;20656;-66
2022/09/17 13:14:01;;;;;;;1.90;1.10;;;18.60;88.40;;;;;;5017323;28;20208;-66
2022/09/17 13:16:36;;;;;;;2.90;1.13;;;18.70;88.00;;;;;;5003858;28;20216;-69